Time;durP1;ratioP1;P1;durP2;ratioP2;P2;SDS_P1;SDS_P2;PMS_P1;PMS_P2;Temp;Humidity;BMP_temperature;BMP_pressure;BME280_temperature;BME280_humidity;BME280_pressure;Samples;Min_cycle;Max_cycle;Signal;HPM_P1;HPM_P2
2022/07/08 00:02:17;;;;;;;10.05;2.58;;;;;14.70;97136.00;;;;8252512;28;20603;-66
2022/07/08 00:06:21;;;;;;;12.32;2.70;;;;;14.70;97137.00;;;;8255009;28;20805;-66
2022/07/08 00:10:24;;;;;;;5.97;2.28;;;;;14.60;97135.00;;;;8255413;28;20285;-65
2022/07/08 00:14:29;;;;;;;8.13;2.30;;;;;14.60;97146.00;;;;8250891;28;20778;-64
2022/07/08 00:18:32;;;;;;;8.48;2.30;;;;;14.60;97138.00;;;;8250900;28;20285;-65
2022/07/08 00:22:36;;;;;;;6.80;2.47;;;;;14.60;97139.00;;;;8255929;28;20249;-65
2022/07/08 00:26:39;;;;;;;8.73;2.80;;;;;14.60;97150.00;;;;8254623;28;20237;-66
2022/07/08 00:30:44;;;;;;;5.18;3.03;;;;;14.60;97151.00;;;;8258709;28;20239;-64
2022/07/08 00:34:47;;;;;;;8.65;2.95;;;;;14.70;97149.00;;;;8253464;28;20206;-65
2022/07/08 00:38:50;;;;;;;7.20;2.10;;;;;14.70;97144.00;;;;8249114;28;20241;-64
2022/07/08 00:42:54;;;;;;;6.68;2.35;;;;;14.60;97151.00;;;;8254722;28;20255;-65
2022/07/08 00:46:58;;;;;;;7.03;3.05;;;;;14.50;97157.00;;;;8252509;28;20365;-65
2022/07/08 00:51:06;;;;;;;7.93;2.10;;;;;14.50;97153.00;;;;8253225;28;20198;-64
2022/07/08 00:55:10;;;;;;;7.28;2.45;;;;;14.30;97153.00;;;;8261124;28;20202;-67
2022/07/08 00:59:13;;;;;;;6.63;2.40;;;;;14.20;97151.00;;;;8261350;28;20228;-65
2022/07/08 01:03:18;;;;;;;9.13;2.42;;;;;14.10;97161.00;;;;8261024;28;20798;-65
2022/07/08 01:07:23;;;;;;;10.35;2.42;;;;;13.90;97164.00;;;;8259378;28;20237;-66
2022/07/08 01:11:27;;;;;;;16.10;2.85;;;;;13.90;97171.00;;;;8256808;28;20208;-65
2022/07/08 01:15:30;;;;;;;8.40;2.80;;;;;13.80;97182.00;;;;8252254;28;20203;-65
2022/07/08 01:19:35;;;;;;;12.35;2.78;;;;;13.80;97188.00;;;;8256818;28;20726;-66
2022/07/08 01:23:40;;;;;;;12.43;3.42;;;;;13.80;97190.00;;;;8256730;28;20249;-65
2022/07/08 01:27:43;;;;;;;7.47;2.58;;;;;13.80;97191.00;;;;8255588;28;20226;-65
2022/07/08 01:31:46;;;;;;;11.45;3.28;;;;;13.80;97190.00;;;;8252492;28;20209;-65
2022/07/08 01:35:50;;;;;;;5.10;2.55;;;;;13.80;97198.00;;;;8259846;28;20746;-65
2022/07/08 01:39:54;;;;;;;4.60;2.65;;;;;13.70;97196.00;;;;8257246;28;20205;-65
2022/07/08 01:43:58;;;;;;;6.80;3.03;;;;;13.50;97187.00;;;;8259244;28;20206;-65
2022/07/08 01:48:01;;;;;;;14.90;3.20;;;;;13.40;97191.00;;;;8247464;28;20714;-66
2022/07/08 01:52:07;;;;;;;6.53;3.60;;;;;13.40;97190.00;;;;8255175;28;20288;-65
2022/07/08 01:56:13;;;;;;;27.17;4.22;;;;;13.30;97193.00;;;;8256992;28;20639;-66
2022/07/08 02:00:16;;;;;;;7.30;2.80;;;;;13.20;97194.00;;;;8257782;28;20325;-64
2022/07/08 02:04:20;;;;;;;8.95;3.30;;;;;13.10;97203.00;;;;8255422;28;20259;-64
2022/07/08 02:08:23;;;;;;;13.68;3.80;;;;;13.00;97208.00;;;;8257477;28;20312;-64
2022/07/08 02:12:28;;;;;;;10.32;4.60;;;;;12.90;97195.00;;;;8249658;28;20627;-64
2022/07/08 02:16:32;;;;;;;13.82;3.50;;;;;12.80;97202.00;;;;8253121;28;20276;-65
2022/07/08 02:20:36;;;;;;;14.35;3.42;;;;;12.80;97198.00;;;;8256449;28;20188;-65
2022/07/08 02:24:39;;;;;;;5.70;2.95;;;;;12.80;97200.00;;;;8261531;28;20210;-65
2022/07/08 02:28:44;;;;;;;9.93;3.50;;;;;12.70;97208.00;;;;8258499;28;20202;-64
2022/07/08 02:32:47;;;;;;;8.85;3.22;;;;;12.70;97221.00;;;;8257707;28;20756;-64
2022/07/08 02:36:50;;;;;;;14.35;3.70;;;;;12.60;97227.00;;;;8256720;28;20286;-65
2022/07/08 02:40:53;;;;;;;7.95;3.47;;;;;12.50;97227.00;;;;8254419;28;20203;-65
2022/07/08 02:44:58;;;;;;;12.43;3.33;;;;;12.50;97227.00;;;;8256998;28;20201;-65
2022/07/08 02:49:01;;;;;;;13.48;3.38;;;;;12.40;97232.00;;;;8255547;28;20208;-64
2022/07/08 02:53:04;;;;;;;9.60;3.20;;;;;12.30;97231.00;;;;8254588;28;20207;-64
2022/07/08 02:57:08;;;;;;;12.77;2.85;;;;;12.20;97229.00;;;;8246067;28;20287;-64
2022/07/08 03:01:13;;;;;;;10.48;3.30;;;;;12.20;97232.00;;;;8280041;22;20665;-65
2022/07/08 03:05:16;;;;;;;16.33;3.78;;;;;12.10;97226.00;;;;8233792;28;20236;-64
2022/07/08 03:09:20;;;;;;;15.38;3.92;;;;;11.90;97237.00;;;;8247868;28;20319;-65
2022/07/08 03:13:23;;;;;;;14.40;3.45;;;;;11.90;97243.00;;;;8240471;28;20208;-65
2022/07/08 03:17:27;;;;;;;17.83;4.33;;;;;11.90;97243.00;;;;8252623;28;20208;-65
2022/07/08 03:21:30;;;;;;;9.88;3.45;;;;;11.90;97244.00;;;;8248970;28;20282;-65
2022/07/08 03:25:34;;;;;;;13.40;4.20;;;;;11.90;97246.00;;;;8242053;28;20223;-65
2022/07/08 03:29:37;;;;;;;12.30;3.80;;;;;11.80;97255.00;;;;8250201;28;20621;-65
2022/07/08 03:33:42;;;;;;;13.18;3.40;;;;;11.80;97261.00;;;;8254743;28;20612;-64
2022/07/08 03:37:45;;;;;;;11.73;3.70;;;;;11.80;97266.00;;;;8250848;28;20202;-65
2022/07/08 03:41:50;;;;;;;12.07;3.67;;;;;11.70;97275.00;;;;8247699;28;20203;-66
2022/07/08 03:45:53;;;;;;;8.82;3.55;;;;;11.80;97288.00;;;;8234137;28;20231;-65
2022/07/08 03:49:58;;;;;;;10.98;3.08;;;;;11.80;97291.00;;;;8241766;28;20203;-66
2022/07/08 03:54:01;;;;;;;15.02;3.47;;;;;11.90;97282.00;;;;8251885;28;20327;-65
2022/07/08 03:58:04;;;;;;;12.93;3.33;;;;;12.00;97287.00;;;;8252438;28;20205;-65
2022/07/08 04:02:07;;;;;;;11.45;3.28;;;;;12.10;97287.00;;;;8252287;28;20261;-65
2022/07/08 04:06:12;;;;;;;11.03;3.53;;;;;12.20;97287.00;;;;8253228;28;20225;-65
2022/07/08 04:10:15;;;;;;;10.13;2.78;;;;;12.40;97308.00;;;;8251202;28;20284;-64
2022/07/08 04:14:18;;;;;;;8.43;3.22;;;;;12.50;97311.00;;;;8255462;28;20200;-64
2022/07/08 04:18:21;;;;;;;10.30;3.20;;;;;12.60;97318.00;;;;8251160;28;20206;-65
2022/07/08 04:22:26;;;;;;;12.90;2.92;;;;;12.60;97324.00;;;;8252575;28;20542;-65
2022/07/08 04:26:31;;;;;;;12.45;3.55;;;;;12.70;97320.00;;;;8252983;28;20249;-65
2022/07/08 04:30:35;;;;;;;10.90;3.33;;;;;12.80;97317.00;;;;8253937;28;20286;-65
2022/07/08 04:34:38;;;;;;;11.25;2.67;;;;;13.00;97322.00;;;;8254368;28;20877;-65
2022/07/08 04:38:42;;;;;;;6.82;2.75;;;;;13.30;97321.00;;;;8248638;28;20286;-65
2022/07/08 04:42:45;;;;;;;11.98;3.17;;;;;13.40;97315.00;;;;8247934;28;20221;-66
2022/07/08 04:46:49;;;;;;;13.30;3.40;;;;;13.30;97323.00;;;;8251115;28;20275;-65
2022/07/08 04:50:52;;;;;;;8.38;2.83;;;;;13.10;97331.00;;;;8244589;28;20233;-65
2022/07/08 04:54:56;;;;;;;6.45;2.70;;;;;13.10;97345.00;;;;8240902;28;20665;-65
2022/07/08 04:59:00;;;;;;;9.73;2.83;;;;;13.20;97335.00;;;;8248733;28;20274;-65
2022/07/08 05:03:03;;;;;;;9.27;2.53;;;;;13.20;97348.00;;;;8247610;28;20315;-64
2022/07/08 05:07:06;;;;;;;13.23;2.95;;;;;13.20;97345.00;;;;8254930;28;20931;-65
2022/07/08 05:11:11;;;;;;;10.63;3.15;;;;;13.30;97349.00;;;;8244900;28;20725;-65
2022/07/08 05:15:14;;;;;;;7.90;2.67;;;;;13.30;97359.00;;;;8249487;28;21056;-65
2022/07/08 05:19:17;;;;;;;9.68;3.30;;;;;13.40;97356.00;;;;8260767;28;20209;-66
2022/07/08 05:23:20;;;;;;;8.95;2.90;;;;;13.60;97364.00;;;;8256263;28;20210;-66
2022/07/08 05:27:25;;;;;;;10.50;2.55;;;;;13.90;97363.00;;;;8255197;28;20230;-66
2022/07/08 05:31:29;;;;;;;9.00;2.92;;;;;14.20;97369.00;;;;8255642;28;20707;-66
2022/07/08 05:35:32;;;;;;;13.70;2.70;;;;;14.10;97371.00;;;;8247110;28;20735;-65
2022/07/08 05:39:35;;;;;;;14.05;2.75;;;;;14.00;97377.00;;;;8246125;28;20203;-65
2022/07/08 05:43:40;;;;;;;17.60;2.90;;;;;14.10;97383.00;;;;8245059;28;20289;-66
2022/07/08 05:47:43;;;;;;;9.43;2.70;;;;;14.20;97386.00;;;;8255225;28;20825;-67
2022/07/08 05:51:46;;;;;;;13.57;3.10;;;;;14.30;97395.00;;;;8251335;28;20721;-67
2022/07/08 05:55:50;;;;;;;7.97;2.70;;;;;14.70;97394.00;;;;8254697;28;20226;-67
2022/07/08 05:59:55;;;;;;;8.77;2.65;;;;;15.00;97403.00;;;;8253195;28;20328;-67
2022/07/08 06:03:58;;;;;;;6.40;2.40;;;;;15.20;97411.00;;;;8250068;28;20634;-66
2022/07/08 06:08:01;;;;;;;5.78;2.67;;;;;15.40;97408.00;;;;8258303;28;20261;-66
2022/07/08 06:12:06;;;;;;;4.25;2.22;;;;;15.40;97406.00;;;;8255679;28;20213;-66
2022/07/08 06:16:11;;;;;;;11.45;2.92;;;;;15.50;97404.00;;;;8254435;28;20187;-67
2022/07/08 06:20:14;;;;;;;13.73;2.63;;;;;15.50;97409.00;;;;8258430;28;20207;-70
2022/07/08 06:24:23;;;;;;;11.07;2.80;;;;;15.70;97416.00;;;;8254546;28;20191;-67
2022/07/08 06:28:27;;;;;;;4.15;2.08;;;;;16.00;97413.00;;;;8255823;28;20373;-67
2022/07/08 06:32:32;;;;;;;7.50;2.13;;;;;16.10;97420.00;;;;8260614;28;20233;-67
2022/07/08 06:36:35;;;;;;;11.60;2.00;;;;;16.20;97424.00;;;;8254337;28;20205;-67
2022/07/08 06:40:38;;;;;;;5.53;2.30;;;;;16.30;97430.00;;;;8255875;28;20293;-67
2022/07/08 06:44:42;;;;;;;7.78;2.00;;;;;16.30;97444.00;;;;8249289;28;20202;-70
2022/07/08 06:48:46;;;;;;;16.23;2.45;;;;;16.40;97438.00;;;;8254305;28;20230;-70
2022/07/08 06:52:50;;;;;;;3.65;1.90;;;;;16.50;97441.00;;;;8249179;28;20196;-69
2022/07/08 06:56:53;;;;;;;8.30;1.98;;;;;16.50;97446.00;;;;8251838;28;20209;-69
2022/07/08 07:00:56;;;;;;;8.23;2.20;;;;;16.60;97450.00;;;;8253041;28;20273;-70
2022/07/08 07:05:01;;;;;;;3.78;1.85;;;;;16.90;97459.00;;;;8254882;28;20239;-70
2022/07/08 07:09:05;;;;;;;8.80;2.55;;;;;17.10;97466.00;;;;8246426;28;20683;-69
2022/07/08 07:13:08;;;;;;;7.93;2.10;;;;;17.50;97465.00;;;;8250438;28;20221;-69
2022/07/08 07:17:12;;;;;;;5.35;2.05;;;;;17.90;97477.00;;;;8252901;28;20206;-69
2022/07/08 07:21:16;;;;;;;10.07;2.20;;;;;18.10;97465.00;;;;8254157;28;20839;-69
2022/07/08 07:25:20;;;;;;;9.90;2.33;;;;;18.20;97469.00;;;;8247383;28;20666;-69
2022/07/08 07:29:23;;;;;;;7.05;2.10;;;;;18.50;97470.00;;;;8251097;28;20258;-70
2022/07/08 07:33:26;;;;;;;7.97;2.38;;;;;18.50;97476.00;;;;8248282;28;20214;-70
2022/07/08 07:37:35;;;;;;;10.32;2.45;;;;;18.60;97482.00;;;;8251601;28;20210;-69
2022/07/08 07:41:39;;;;;;;10.25;2.10;;;;;18.40;97474.00;;;;8246494;28;20207;-69
2022/07/08 07:45:42;;;;;;;7.68;2.22;;;;;18.50;97472.00;;;;8237066;28;20199;-69
2022/07/08 07:49:46;;;;;;;6.13;2.47;;;;;19.10;97479.00;;;;8239555;28;20623;-70
2022/07/08 07:53:50;;;;;;;9.38;2.47;;;;;20.10;97475.00;;;;8252268;28;20287;-70
2022/07/08 07:57:54;;;;;;;6.95;2.25;;;;;20.90;97463.00;;;;8249548;28;20217;-70
2022/07/08 08:01:57;;;;;;;6.40;2.15;;;;;21.20;97474.00;;;;8245333;28;20581;-68
2022/07/08 08:10:53;;;;;;;3.85;1.80;;;;;21.80;97464.00;;;;8234942;28;20553;-68
2022/07/08 08:14:56;;;;;;;8.05;2.60;;;;;22.40;97463.00;;;;8256153;28;20228;-68
2022/07/08 08:19:00;;;;;;;7.03;2.10;;;;;22.50;97469.00;;;;8299097;28;20200;-68
2022/07/08 08:23:04;;;;;;;11.98;2.42;;;;;22.40;97479.00;;;;8281259;28;20252;-69
2022/07/08 08:27:26;;;;;;;10.88;2.00;;;;;23.10;97486.00;;;;8283841;28;20209;-68
2022/07/08 08:31:30;;;;;;;5.97;2.20;;;;;23.00;97488.00;;;;8281155;28;20298;-67
2022/07/08 08:35:33;;;;;;;8.35;2.00;;;;;22.80;97487.00;;;;8278039;28;20273;-66
2022/07/08 08:39:36;;;;;;;6.55;1.88;;;;;23.50;97492.00;;;;8282767;28;20230;-67
2022/07/08 08:43:42;;;;;;;3.05;1.60;;;;;23.10;97486.00;;;;8283341;28;20309;-66
2022/07/08 08:47:48;;;;;;;4.40;1.75;;;;;22.90;97493.00;;;;8287278;28;20233;-67
2022/07/08 08:51:52;;;;;;;3.38;1.60;;;;;23.20;97498.00;;;;8293801;28;20210;-68
2022/07/08 08:55:56;;;;;;;4.53;1.55;;;;;23.00;97495.00;;;;8294103;28;20206;-68
2022/07/08 09:00:01;;;;;;;7.97;1.60;;;;;23.00;97484.00;;;;8295836;28;20273;-68
2022/07/08 09:04:10;;;;;;;4.13;1.67;;;;;22.80;97488.00;;;;8278771;28;20245;-67
2022/07/08 09:08:15;;;;;;;4.93;1.48;;;;;22.90;97495.00;;;;8277707;28;20250;-67
2022/07/08 09:12:20;;;;;;;7.13;1.55;;;;;22.30;97493.00;;;;8278618;28;20210;-68
2022/07/08 09:16:24;;;;;;;4.43;2.08;;;;;22.20;97500.00;;;;8281429;28;20201;-67
2022/07/08 09:20:29;;;;;;;9.07;2.45;;;;;21.90;97510.00;;;;8276332;28;20198;-68
2022/07/08 09:24:32;;;;;;;5.30;2.08;;;;;21.70;97502.00;;;;8283003;28;20277;-68
2022/07/08 09:28:37;;;;;;;18.70;3.85;;;;;22.20;97502.00;;;;8288067;28;20226;-68
2022/07/08 09:32:56;;;;;;;4.68;2.03;;;;;22.10;97518.00;;;;8288696;28;20278;-68
2022/07/08 09:36:59;;;;;;;4.45;1.88;;;;;22.00;97515.00;;;;8297461;28;20240;-68
2022/07/08 09:41:05;;;;;;;5.03;2.10;;;;;22.00;97522.00;;;;8289162;28;20205;-68
2022/07/08 09:45:09;;;;;;;3.80;2.00;;;;;21.80;97532.00;;;;8285302;28;20194;-68
2022/07/08 09:53:42;;;;;;;8.90;3.13;;;;;22.10;97533.00;;;;8378730;27;20684;-67
2022/07/08 09:57:45;;;;;;;8.32;2.22;;;;;22.20;97538.00;;;;8343468;28;20215;-67
2022/07/08 10:01:49;;;;;;;4.47;2.45;;;;;22.00;97537.00;;;;8344258;28;20222;-67
2022/07/08 10:05:52;;;;;;;6.47;2.30;;;;;21.50;97533.00;;;;8346145;28;20193;-68
2022/07/08 10:09:58;;;;;;;6.00;1.92;;;;;21.20;97532.00;;;;8342026;28;20312;-68
2022/07/08 10:14:02;;;;;;;4.28;1.75;;;;;21.40;97527.00;;;;8351997;28;20197;-69
2022/07/08 10:18:12;;;;;;;4.50;1.60;;;;;22.10;97522.00;;;;8345272;28;20228;-70
2022/07/08 10:22:17;;;;;;;3.05;1.65;;;;;22.40;97520.00;;;;8340948;28;20335;-68
2022/07/08 10:26:24;;;;;;;4.60;1.95;;;;;22.40;97523.00;;;;8338500;28;20291;-70
2022/07/08 10:30:32;;;;;;;4.25;2.13;;;;;22.40;97517.00;;;;8339073;28;20315;-68
2022/07/08 10:34:36;;;;;;;6.53;1.90;;;;;23.20;97526.00;;;;8346883;28;20285;-69
2022/07/08 10:38:41;;;;;;;5.25;2.03;;;;;23.40;97530.00;;;;8339871;28;20942;-69
2022/07/08 10:42:45;;;;;;;4.57;2.00;;;;;23.60;97535.00;;;;8342689;28;20666;-69
2022/07/08 10:46:52;;;;;;;6.25;1.92;;;;;23.60;97533.00;;;;8349317;28;20275;-67
2022/07/08 10:50:56;;;;;;;8.65;1.98;;;;;23.40;97533.00;;;;8338666;28;20295;-69
2022/07/08 10:55:19;;;;;;;11.55;2.20;;;;;22.90;97533.00;;;;8338058;28;20201;-69
2022/07/08 10:59:26;;;;;;;3.75;1.60;;;;;22.60;97537.00;;;;8339874;28;20271;-69
2022/07/08 11:03:42;;;;;;;6.57;1.70;;;;;22.10;97541.00;;;;8324963;28;20551;-69
2022/07/08 11:07:45;;;;;;;4.80;1.80;;;;;21.90;97546.00;;;;8314468;28;20316;-69
2022/07/08 11:11:50;;;;;;;6.97;2.00;;;;;22.00;97539.00;;;;8317388;28;20230;-68
2022/07/08 11:15:55;;;;;;;3.45;1.60;;;;;22.20;97543.00;;;;8322320;28;20403;-69
2022/07/08 11:20:00;;;;;;;4.43;1.80;;;;;22.70;97538.00;;;;8315330;28;20582;-69
2022/07/08 11:24:04;;;;;;;4.72;1.90;;;;;23.50;97535.00;;;;8321779;28;20233;-68
2022/07/08 11:28:19;;;;;;;3.83;1.98;;;;;23.60;97536.00;;;;8315411;28;20209;-68
2022/07/08 11:32:25;;;;;;;3.95;1.88;;;;;23.50;97530.00;;;;8320316;28;20233;-70
2022/07/08 11:36:28;;;;;;;4.32;1.38;;;;;23.20;97532.00;;;;8308024;28;20210;-68
2022/07/08 11:40:41;;;;;;;3.72;1.65;;;;;22.80;97528.00;;;;8311615;28;20307;-68
2022/07/08 11:44:45;;;;;;;6.25;1.77;;;;;22.30;97531.00;;;;8308108;28;20208;-67
2022/07/08 11:48:50;;;;;;;6.38;2.50;;;;;22.10;97545.00;;;;8313800;28;20288;-67
2022/07/08 11:52:53;;;;;;;3.00;1.70;;;;;22.10;97545.00;;;;8321028;28;20259;-68
2022/07/08 11:56:58;;;;;;;5.63;1.90;;;;;22.10;97552.00;;;;8317955;28;20570;-68
2022/07/08 12:01:02;;;;;;;4.47;2.00;;;;;22.00;97544.00;;;;8318360;28;20221;-68
2022/07/08 12:05:10;;;;;;;9.40;2.67;;;;;21.90;97546.00;;;;8315110;28;20308;-66
2022/07/08 12:14:47;;;;;;;5.15;1.80;;;;;22.20;97543.00;;;;8331266;28;20693;-68
2022/07/08 12:19:25;;;;;;;6.05;1.77;;;;;22.90;97540.00;;;;8331012;28;20201;-68
2022/07/08 12:24:02;;;;;;;5.63;1.70;;;;;23.30;97533.00;;;;8334373;28;20236;-68
2022/07/08 12:28:36;;;;;;;5.38;1.83;;;;;24.10;97547.00;;;;8329802;28;20190;-68
2022/07/08 12:33:13;;;;;;;8.20;2.38;;;;;24.00;97533.00;;;;8332189;28;20632;-68
2022/07/08 12:38:02;;;;;;;2.60;1.85;;;;;24.30;97532.00;;;;8332055;28;20523;-69
2022/07/08 12:42:28;;;;;;;4.45;1.88;;;;;24.60;97520.00;;;;8331443;28;20240;-69
2022/07/08 12:47:06;;;;;;;2.70;1.65;;;;;25.70;97526.00;;;;8331361;28;20193;-69
2022/07/08 12:51:40;;;;;;;9.63;1.92;;;;;25.90;97524.00;;;;8332920;28;20229;-69
2022/07/08 12:56:16;;;;;;;3.85;1.50;;;;;25.50;97522.00;;;;8332844;28;20225;-69
2022/07/08 13:00:55;;;;;;;3.10;1.70;;;;;25.40;97529.00;;;;8332212;28;20293;-69
2022/07/08 13:04:58;;;;;;;2.08;1.45;;;;;24.90;97536.00;;;;8332092;28;20296;-68
2022/07/08 13:09:01;;;;;;;4.03;1.70;;;;;24.30;97531.00;;;;8332806;28;20272;-73
2022/07/08 13:13:41;;;;;;;7.63;1.92;;;;;24.20;97529.00;;;;8332283;28;20216;-72
2022/07/08 13:18:19;;;;;;;2.50;1.70;;;;;24.60;97526.00;;;;8332048;28;20623;-69
2022/07/08 13:22:53;;;;;;;2.78;1.48;;;;;24.90;97528.00;;;;8331432;28;20201;-68
2022/07/08 13:27:30;;;;;;;2.85;1.80;;;;;24.90;97524.00;;;;8331547;28;20284;-69
2022/07/08 13:31:33;;;;;;;4.00;1.85;;;;;25.60;97519.00;;;;8331488;28;20260;-70
2022/07/08 13:36:12;;;;;;;4.03;1.80;;;;;25.70;97518.00;;;;8331674;28;20197;-66
2022/07/08 13:40:46;;;;;;;4.03;1.52;;;;;24.90;97522.00;;;;8330638;28;20289;-68
2022/07/08 13:44:49;;;;;;;3.33;1.80;;;;;24.60;97515.00;;;;8331408;28;20197;-67
2022/07/08 13:48:56;;;;;;;4.50;1.65;;;;;24.80;97504.00;;;;8330585;28;20669;-67
2022/07/08 13:53:01;;;;;;;3.78;1.63;;;;;25.90;97502.00;;;;8330886;28;20759;-67
2022/07/08 13:57:05;;;;;;;4.38;1.70;;;;;26.90;97510.00;;;;8331938;28;20678;-67
2022/07/08 14:01:08;;;;;;;3.17;1.67;;;;;26.90;97498.00;;;;8330481;28;20284;-67
2022/07/08 14:05:42;;;;;;;1.65;1.55;;;;;26.60;97505.00;;;;8330745;28;20244;-70
2022/07/08 14:10:21;;;;;;;2.47;1.60;;;;;25.90;97500.00;;;;8330721;28;20200;-70
2022/07/08 14:14:54;;;;;;;1.83;1.40;;;;;26.50;97495.00;;;;8330613;28;20229;-70
2022/07/08 14:18:58;;;;;;;2.63;1.60;;;;;26.60;97495.00;;;;8330603;28;20236;-70
2022/07/08 14:23:01;;;;;;;4.80;1.83;;;;;26.40;97495.00;;;;8331200;28;20296;-69
2022/07/08 14:27:39;;;;;;;4.53;1.77;;;;;26.20;97489.00;;;;8330974;28;20702;-68
2022/07/08 14:32:12;;;;;;;1.65;1.40;;;;;26.30;97490.00;;;;8331046;28;20675;-69
2022/07/08 14:36:47;;;;;;;2.55;1.52;;;;;27.30;97491.00;;;;8330769;28;20236;-70
2022/07/08 14:41:23;;;;;;;2.08;1.70;;;;;28.80;97481.00;;;;8337001;28;20198;-71
2022/07/08 14:46:02;;;;;;;5.05;1.83;;;;;29.80;97486.00;;;;8336455;28;20595;-70
2022/07/08 14:50:34;;;;;;;5.80;1.75;;;;;29.10;97487.00;;;;8337026;28;20201;-70
2022/07/08 14:59:34;;;;;;;3.25;1.70;;;;;30.40;97476.00;;;;8336891;28;20193;-71
2022/07/08 15:04:11;;;;;;;1.52;1.40;;;;;31.10;97472.00;;;;8336270;28;20240;-71
2022/07/08 15:08:47;;;;;;;2.63;1.50;;;;;31.80;97476.00;;;;8336445;28;20301;-69
2022/07/08 15:12:48;;;;;;;4.68;1.60;;;;;31.00;97470.00;;;;8335273;28;20316;-69
2022/07/08 15:16:50;;;;;;;2.95;1.48;;;;;31.10;97480.00;;;;8336496;28;20702;-69
2022/07/08 15:21:27;;;;;;;2.30;1.40;;;;;30.50;97476.00;;;;8335066;28;20198;-69
2022/07/08 15:26:03;;;;;;;4.80;1.55;;;;;29.40;97469.00;;;;8335525;28;20205;-69
2022/07/08 15:30:06;;;;;;;4.07;1.60;;;;;29.30;97466.00;;;;8335156;28;20202;-68
2022/07/08 15:34:43;;;;;;;2.80;1.50;;;;;29.80;97457.00;;;;8335787;28;20237;-69
2022/07/08 15:38:47;;;;;;;3.42;1.75;;;;;30.50;97452.00;;;;8334532;28;20244;-68
2022/07/08 15:42:48;;;;;;;3.22;1.33;;;;;30.80;97463.00;;;;8335739;28;20714;-67
2022/07/08 15:46:50;;;;;;;3.30;1.40;;;;;29.90;97462.00;;;;8334627;28;20204;-67
2022/07/08 15:51:26;;;;;;;3.15;1.50;;;;;29.90;97454.00;;;;8334705;28;20272;-68
2022/07/08 15:56:04;;;;;;;6.38;1.95;;;;;30.30;97461.00;;;;8334305;28;20428;-66
2022/07/08 16:00:40;;;;;;;3.85;1.58;;;;;30.60;97461.00;;;;8334591;28;20281;-66
2022/07/08 16:04:43;;;;;;;2.40;1.20;;;;;31.10;97458.00;;;;8333944;28;20241;-66
2022/07/08 16:08:45;;;;;;;1.90;1.40;;;;;31.60;97454.00;;;;8334776;28;20193;-65
2022/07/08 16:12:48;;;;;;;4.15;1.42;;;;;31.80;97449.00;;;;8333235;28;20232;-65
2022/07/08 16:17:21;;;;;;;4.85;1.50;;;;;31.30;97453.00;;;;8334781;28;20225;-65
2022/07/08 16:21:23;;;;;;;3.45;1.60;;;;;31.00;97447.00;;;;8333800;28;20233;-65
2022/07/08 16:26:03;;;;;;;5.50;1.30;;;;;31.00;97447.00;;;;8330706;28;20232;-65
2022/07/08 16:30:09;;;;;;;3.28;1.45;;;;;30.80;97449.00;;;;8334443;28;20209;-65
2022/07/08 16:34:42;;;;;;;3.05;1.40;;;;;31.10;97451.00;;;;8332730;28;20278;-65
2022/07/08 16:38:44;;;;;;;2.42;1.58;;;;;31.00;97443.00;;;;8333839;28;20236;-65
2022/07/08 16:42:45;;;;;;;1.67;1.27;;;;;30.60;97454.00;;;;8334057;28;20225;-64
2022/07/08 16:47:22;;;;;;;4.18;1.60;;;;;30.10;97456.00;;;;8333046;28;20336;-65
2022/07/08 16:51:24;;;;;;;5.70;1.55;;;;;29.40;97456.00;;;;8333083;28;20240;-65
2022/07/08 16:55:26;;;;;;;3.35;1.73;;;;;28.90;97449.00;;;;8333111;28;20265;-64
2022/07/08 17:00:02;;;;;;;1.60;1.50;;;;;29.30;97458.00;;;;8332940;28;20709;-65
2022/07/08 17:04:05;;;;;;;1.92;1.60;;;;;30.40;97462.00;;;;8332675;28;20220;-65
2022/07/08 17:08:07;;;;;;;5.05;1.50;;;;;31.20;97456.00;;;;8332917;28;20193;-64
2022/07/08 17:12:09;;;;;;;1.50;1.40;;;;;31.90;97457.00;;;;8332634;28;20316;-63
2022/07/08 17:16:11;;;;;;;2.47;1.38;;;;;32.00;97452.00;;;;8332848;28;20224;-64
2022/07/08 17:20:15;;;;;;;3.95;1.80;;;;;32.00;97454.00;;;;8332304;28;20193;-65
2022/07/08 17:24:17;;;;;;;4.20;1.63;;;;;31.80;97465.00;;;;8332806;28;20280;-64
2022/07/08 17:28:19;;;;;;;3.22;1.33;;;;;32.30;97458.00;;;;8332535;28;20666;-64
2022/07/08 17:32:54;;;;;;;1.65;1.52;;;;;31.90;97451.00;;;;8331659;28;20248;-64
2022/07/08 17:36:58;;;;;;;3.95;1.50;;;;;31.50;97457.00;;;;8332504;28;20562;-64
2022/07/08 17:41:00;;;;;;;1.92;1.23;;;;;30.70;97454.00;;;;8331686;28;20237;-64
2022/07/08 17:45:36;;;;;;;3.55;1.40;;;;;30.70;97455.00;;;;8332464;28;20201;-65
2022/07/08 17:49:38;;;;;;;1.98;1.23;;;;;30.90;97457.00;;;;8331810;28;20200;-65
2022/07/08 17:53:41;;;;;;;4.13;1.58;;;;;31.10;97460.00;;;;8331223;28;20319;-64
2022/07/08 17:58:17;;;;;;;4.25;1.40;;;;;30.80;97460.00;;;;8331767;28;20575;-64
2022/07/08 18:02:19;;;;;;;3.03;1.52;;;;;29.20;97465.00;;;;8332009;28;20222;-65
2022/07/08 18:06:20;;;;;;;2.03;1.30;;;;;27.70;97468.00;;;;8331169;28;20612;-66
2022/07/08 18:10:58;;;;;;;3.13;1.40;;;;;26.40;97468.00;;;;8331679;28;20595;-63
2022/07/08 18:15:00;;;;;;;4.35;1.23;;;;;25.20;97465.00;;;;8337134;28;20264;-63
2022/07/08 18:19:02;;;;;;;2.78;1.45;;;;;24.40;97467.00;;;;8338014;28;20181;-63
2022/07/08 18:23:04;;;;;;;2.75;1.38;;;;;23.70;97468.00;;;;8338217;28;20201;-64
2022/07/08 18:27:08;;;;;;;1.83;1.50;;;;;23.10;97463.00;;;;8337807;28;20248;-64
2022/07/08 18:31:40;;;;;;;3.75;1.90;;;;;22.60;97470.00;;;;8337712;28;20233;-63
2022/07/08 18:35:42;;;;;;;4.15;1.85;;;;;22.20;97468.00;;;;8337621;28;20267;-63
2022/07/08 18:39:44;;;;;;;2.38;1.50;;;;;22.00;97469.00;;;;8337288;28;20276;-63
2022/07/08 18:44:21;;;;;;;4.28;1.65;;;;;21.70;97464.00;;;;8337126;28;20293;-63
2022/07/08 18:48:54;;;;;;;2.30;1.30;;;;;21.40;97463.00;;;;8336600;28;20229;-64
2022/07/08 18:52:56;;;;;;;2.17;1.27;;;;;21.30;97474.00;;;;8337267;28;20686;-64
2022/07/08 18:57:32;;;;;;;6.72;1.40;;;;;21.10;97475.00;;;;8336490;28;20610;-63
2022/07/08 19:01:35;;;;;;;3.00;1.20;;;;;20.90;97464.00;;;;8336667;28;20229;-63
2022/07/08 19:05:37;;;;;;;2.55;1.55;;;;;20.70;97469.00;;;;8336756;28;20665;-63
2022/07/08 19:10:13;;;;;;;3.80;1.65;;;;;20.70;97476.00;;;;8335125;28;20229;-63
2022/07/08 19:14:14;;;;;;;2.53;1.42;;;;;20.60;97478.00;;;;8336100;28;20225;-63
2022/07/08 19:18:18;;;;;;;3.38;1.65;;;;;20.60;97481.00;;;;8335823;28;20239;-63
2022/07/08 19:22:20;;;;;;;4.95;1.40;;;;;20.60;97474.00;;;;8336016;28;20232;-62
2022/07/08 19:26:56;;;;;;;3.63;1.38;;;;;20.60;97482.00;;;;8335156;28;20197;-63
2022/07/08 19:31:31;;;;;;;3.20;1.55;;;;;20.50;97482.00;;;;8335559;28;20232;-63
2022/07/08 19:35:35;;;;;;;3.47;1.85;;;;;20.50;97476.00;;;;8335735;28;20225;-63
2022/07/08 19:39:37;;;;;;;7.53;2.33;;;;;20.30;97478.00;;;;8335282;28;20225;-63
2022/07/08 19:44:12;;;;;;;6.25;1.85;;;;;20.00;97480.00;;;;8334505;28;20197;-63
2022/07/08 19:48:14;;;;;;;2.35;1.60;;;;;19.80;97489.00;;;;8335466;28;20646;-62
